sensor_id;sensor_type;location;lat;lon;timestamp;temperature;humidity
13697;DHT22;6920;50.080;8.226;2022-12-18T00:00:47;-6.10;99.90
13697;DHT22;6920;50.080;8.226;2022-12-18T00:03:15;-6.10;99.90
13697;DHT22;6920;50.080;8.226;2022-12-18T00:05:48;-4.40;99.90
13697;DHT22;6920;50.080;8.226;2022-12-18T00:08:16;-6.00;99.90
13697;DHT22;6920;50.080;8.226;2022-12-18T00:10:44;-5.30;99.90
13697;DHT22;6920;50.080;8.226;2022-12-18T00:13:12;-6.30;99.90
13697;DHT22;6920;50.080;8.226;2022-12-18T00:15:40;-6.50;99.90
13697;DHT22;6920;50.080;8.226;2022-12-18T00:18:07;-6.60;99.90
13697;DHT22;6920;50.080;8.226;2022-12-18T00:20:36;-6.60;99.90
13697;DHT22;6920;50.080;8.226;2022-12-18T00:23:04;-6.50;99.90
13697;DHT22;6920;50.080;8.226;2022-12-18T00:25:33;-6.50;99.90
13697;DHT22;6920;50.080;8.226;2022-12-18T00:28:00;-6.40;99.90
13697;DHT22;6920;50.080;8.226;2022-12-18T00:30:28;-6.30;99.90
13697;DHT22;6920;50.080;8.226;2022-12-18T00:32:57;-6.30;99.90
13697;DHT22;6920;50.080;8.226;2022-12-18T00:35:24;-6.40;99.90
13697;DHT22;6920;50.080;8.226;2022-12-18T00:37:51;-4.00;99.90
13697;DHT22;6920;50.080;8.226;2022-12-18T00:40:19;-6.30;99.90
13697;DHT22;6920;50.080;8.226;2022-12-18T00:42:46;-6.30;99.90
13697;DHT22;6920;50.080;8.226;2022-12-18T00:45:21;-5.30;99.90
13697;DHT22;6920;50.080;8.226;2022-12-18T00:47:49;-5.10;99.90
13697;DHT22;6920;50.080;8.226;2022-12-18T00:50:18;-6.10;99.90
13697;DHT22;6920;50.080;8.226;2022-12-18T00:52:45;-6.10;99.90
13697;DHT22;6920;50.080;8.226;2022-12-18T00:55:12;-5.30;99.90
13697;DHT22;6920;50.080;8.226;2022-12-18T00:57:40;-6.50;99.90
13697;DHT22;6920;50.080;8.226;2022-12-18T01:00:10;-5.20;99.90
13697;DHT22;6920;50.080;8.226;2022-12-18T01:02:38;-6.70;99.90
13697;DHT22;6920;50.080;8.226;2022-12-18T01:05:06;-6.70;99.90
13697;DHT22;6920;50.080;8.226;2022-12-18T01:07:34;-6.60;99.90
13697;DHT22;6920;50.080;8.226;2022-12-18T01:10:01;-6.60;99.90
13697;DHT22;6920;50.080;8.226;2022-12-18T01:12:28;-6.30;99.90
13697;DHT22;6920;50.080;8.226;2022-12-18T01:14:55;-4.50;99.90
13697;DHT22;6920;50.080;8.226;2022-12-18T01:17:23;-6.40;99.90
13697;DHT22;6920;50.080;8.226;2022-12-18T01:19:50;-5.80;99.90
13697;DHT22;6920;50.080;8.226;2022-12-18T01:22:17;-6.30;99.90
13697;DHT22;6920;50.080;8.226;2022-12-18T01:24:45;-6.30;99.90
13697;DHT22;6920;50.080;8.226;2022-12-18T01:27:13;-6.30;99.90
13697;DHT22;6920;50.080;8.226;2022-12-18T01:29:40;-6.50;99.90
13697;DHT22;6920;50.080;8.226;2022-12-18T01:32:08;-6.40;99.90
13697;DHT22;6920;50.080;8.226;2022-12-18T01:34:35;-6.30;99.90
13697;DHT22;6920;50.080;8.226;2022-12-18T01:37:03;-6.50;99.90
13697;DHT22;6920;50.080;8.226;2022-12-18T01:39:31;-6.70;99.90
13697;DHT22;6920;50.080;8.226;2022-12-18T01:42:00;-6.60;99.90
13697;DHT22;6920;50.080;8.226;2022-12-18T01:45:04;-6.60;99.90
13697;DHT22;6920;50.080;8.226;2022-12-18T01:47:36;-6.50;99.90
13697;DHT22;6920;50.080;8.226;2022-12-18T01:50:07;-6.60;99.90
13697;DHT22;6920;50.080;8.226;2022-12-18T01:52:35;-6.60;99.90
13697;DHT22;6920;50.080;8.226;2022-12-18T01:55:05;-6.50;99.90
13697;DHT22;6920;50.080;8.226;2022-12-18T01:57:34;-6.50;99.90
13697;DHT22;6920;50.080;8.226;2022-12-18T02:00:06;-6.60;99.90
13697;DHT22;6920;50.080;8.226;2022-12-18T02:02:33;-6.60;99.90
13697;DHT22;6920;50.080;8.226;2022-12-18T02:05:00;-6.40;99.90
13697;DHT22;6920;50.080;8.226;2022-12-18T02:07:35;-6.60;99.90
13697;DHT22;6920;50.080;8.226;2022-12-18T02:10:09;-6.60;99.90
13697;DHT22;6920;50.080;8.226;2022-12-18T02:12:45;-6.50;99.90
13697;DHT22;6920;50.080;8.226;2022-12-18T02:15:19;-6.40;99.90
13697;DHT22;6920;50.080;8.226;2022-12-18T02:17:50;-6.30;99.90
13697;DHT22;6920;50.080;8.226;2022-12-18T02:20:22;-5.80;99.90
13697;DHT22;6920;50.080;8.226;2022-12-18T02:23:06;-4.80;99.90
13697;DHT22;6920;50.080;8.226;2022-12-18T02:25:53;-6.50;99.90
13697;DHT22;6920;50.080;8.226;2022-12-18T02:28:30;-5.90;99.90
13697;DHT22;6920;50.080;8.226;2022-12-18T02:31:00;-5.80;99.90
13697;DHT22;6920;50.080;8.226;2022-12-18T02:33:29;-6.30;99.90
13697;DHT22;6920;50.080;8.226;2022-12-18T02:36:00;-6.40;99.90
13697;DHT22;6920;50.080;8.226;2022-12-18T02:38:30;-6.40;99.90
13697;DHT22;6920;50.080;8.226;2022-12-18T02:40:59;-6.40;99.90
13697;DHT22;6920;50.080;8.226;2022-12-18T02:43:27;-6.70;99.90
13697;DHT22;6920;50.080;8.226;2022-12-18T02:45:58;-6.60;99.90
13697;DHT22;6920;50.080;8.226;2022-12-18T02:48:35;-6.50;99.90
13697;DHT22;6920;50.080;8.226;2022-12-18T02:51:47;-6.50;99.90
13697;DHT22;6920;50.080;8.226;2022-12-18T02:54:26;-6.60;99.90
13697;DHT22;6920;50.080;8.226;2022-12-18T02:56:59;-6.80;99.90
13697;DHT22;6920;50.080;8.226;2022-12-18T02:59:34;-6.70;99.90
13697;DHT22;6920;50.080;8.226;2022-12-18T03:02:11;-6.90;99.90
13697;DHT22;6920;50.080;8.226;2022-12-18T03:04:48;-6.80;99.90
13697;DHT22;6920;50.080;8.226;2022-12-18T03:07:21;-6.80;99.90
13697;DHT22;6920;50.080;8.226;2022-12-18T03:09:53;-5.00;99.90
13697;DHT22;6920;50.080;8.226;2022-12-18T03:12:29;-5.30;99.90
13697;DHT22;6920;50.080;8.226;2022-12-18T03:15:00;-5.90;99.90
13697;DHT22;6920;50.080;8.226;2022-12-18T03:17:32;-6.20;99.90
13697;DHT22;6920;50.080;8.226;2022-12-18T03:20:04;-5.80;99.90
13697;DHT22;6920;50.080;8.226;2022-12-18T03:22:34;-6.40;99.90
13697;DHT22;6920;50.080;8.226;2022-12-18T03:25:05;-6.00;99.90
13697;DHT22;6920;50.080;8.226;2022-12-18T03:27:36;-6.20;99.90
13697;DHT22;6920;50.080;8.226;2022-12-18T03:30:07;-6.20;99.90
13697;DHT22;6920;50.080;8.226;2022-12-18T03:32:39;-6.10;99.90
13697;DHT22;6920;50.080;8.226;2022-12-18T03:35:08;-6.00;99.90
13697;DHT22;6920;50.080;8.226;2022-12-18T03:37:37;-6.10;99.90
13697;DHT22;6920;50.080;8.226;2022-12-18T03:40:06;-4.80;99.90
13697;DHT22;6920;50.080;8.226;2022-12-18T03:42:42;-6.40;99.90
13697;DHT22;6920;50.080;8.226;2022-12-18T03:45:15;-5.70;99.90
13697;DHT22;6920;50.080;8.226;2022-12-18T03:47:55;-6.50;99.90
13697;DHT22;6920;50.080;8.226;2022-12-18T03:50:29;-6.60;99.90
13697;DHT22;6920;50.080;8.226;2022-12-18T03:53:06;-6.60;99.90
13697;DHT22;6920;50.080;8.226;2022-12-18T03:55:36;-6.00;99.90
13697;DHT22;6920;50.080;8.226;2022-12-18T03:58:07;-6.10;99.90
13697;DHT22;6920;50.080;8.226;2022-12-18T04:00:35;-6.50;99.90
13697;DHT22;6920;50.080;8.226;2022-12-18T04:03:04;-5.60;99.90
13697;DHT22;6920;50.080;8.226;2022-12-18T04:05:32;-6.60;99.90
13697;DHT22;6920;50.080;8.226;2022-12-18T04:08:01;-6.60;99.90
13697;DHT22;6920;50.080;8.226;2022-12-18T04:10:28;-6.50;99.90
13697;DHT22;6920;50.080;8.226;2022-12-18T04:12:56;-6.30;99.90
13697;DHT22;6920;50.080;8.226;2022-12-18T04:15:25;-6.50;99.90
13697;DHT22;6920;50.080;8.226;2022-12-18T04:17:52;-5.90;99.90
13697;DHT22;6920;50.080;8.226;2022-12-18T04:20:19;-6.70;99.90
13697;DHT22;6920;50.080;8.226;2022-12-18T04:22:46;-6.70;99.90
13697;DHT22;6920;50.080;8.226;2022-12-18T04:25:13;-6.70;99.90
13697;DHT22;6920;50.080;8.226;2022-12-18T04:27:40;-6.70;99.90
13697;DHT22;6920;50.080;8.226;2022-12-18T04:30:08;-6.10;99.90
13697;DHT22;6920;50.080;8.226;2022-12-18T04:32:37;-6.50;99.90
13697;DHT22;6920;50.080;8.226;2022-12-18T04:35:04;-6.50;99.90
13697;DHT22;6920;50.080;8.226;2022-12-18T04:37:36;-6.60;99.90
13697;DHT22;6920;50.080;8.226;2022-12-18T04:40:04;-6.30;99.90
13697;DHT22;6920;50.080;8.226;2022-12-18T04:42:31;-6.40;99.90
13697;DHT22;6920;50.080;8.226;2022-12-18T04:44:58;-6.40;99.90
13697;DHT22;6920;50.080;8.226;2022-12-18T04:47:25;-3.60;99.90
13697;DHT22;6920;50.080;8.226;2022-12-18T04:49:53;-6.50;99.90
13697;DHT22;6920;50.080;8.226;2022-12-18T04:52:20;-6.40;99.90
13697;DHT22;6920;50.080;8.226;2022-12-18T04:54:47;-6.30;99.90
13697;DHT22;6920;50.080;8.226;2022-12-18T04:57:14;-6.50;99.90
13697;DHT22;6920;50.080;8.226;2022-12-18T04:59:43;-5.50;99.90
13697;DHT22;6920;50.080;8.226;2022-12-18T05:02:10;-5.50;99.90
13697;DHT22;6920;50.080;8.226;2022-12-18T05:04:37;-6.50;99.90
13697;DHT22;6920;50.080;8.226;2022-12-18T05:07:06;-6.40;99.90
13697;DHT22;6920;50.080;8.226;2022-12-18T05:09:34;-5.00;99.90
13697;DHT22;6920;50.080;8.226;2022-12-18T05:12:01;-2.70;99.90
13697;DHT22;6920;50.080;8.226;2022-12-18T05:14:29;-6.50;99.90
13697;DHT22;6920;50.080;8.226;2022-12-18T05:16:56;-6.50;99.90
13697;DHT22;6920;50.080;8.226;2022-12-18T05:19:23;-3.40;99.90
13697;DHT22;6920;50.080;8.226;2022-12-18T05:21:50;-6.30;99.90
13697;DHT22;6920;50.080;8.226;2022-12-18T05:24:18;-6.30;99.90
13697;DHT22;6920;50.080;8.226;2022-12-18T05:26:46;-6.50;99.90
13697;DHT22;6920;50.080;8.226;2022-12-18T05:29:13;-5.80;99.90
13697;DHT22;6920;50.080;8.226;2022-12-18T05:31:40;-5.80;99.90
13697;DHT22;6920;50.080;8.226;2022-12-18T05:34:07;-6.20;99.90
13697;DHT22;6920;50.080;8.226;2022-12-18T05:36:34;-6.40;99.90
13697;DHT22;6920;50.080;8.226;2022-12-18T05:39:02;-6.50;99.90
13697;DHT22;6920;50.080;8.226;2022-12-18T05:41:31;-6.40;99.90
13697;DHT22;6920;50.080;8.226;2022-12-18T05:43:58;-6.20;99.90
13697;DHT22;6920;50.080;8.226;2022-12-18T05:46:26;-5.90;99.90
13697;DHT22;6920;50.080;8.226;2022-12-18T05:48:53;-6.20;99.90
13697;DHT22;6920;50.080;8.226;2022-12-18T05:51:21;-6.40;99.90
13697;DHT22;6920;50.080;8.226;2022-12-18T05:53:49;-6.50;99.90
13697;DHT22;6920;50.080;8.226;2022-12-18T05:56:18;-6.30;99.90
13697;DHT22;6920;50.080;8.226;2022-12-18T05:58:47;-6.40;99.90
13697;DHT22;6920;50.080;8.226;2022-12-18T06:01:16;-3.60;99.90
13697;DHT22;6920;50.080;8.226;2022-12-18T06:03:44;-6.60;99.90
13697;DHT22;6920;50.080;8.226;2022-12-18T06:06:15;-4.90;99.90
13697;DHT22;6920;50.080;8.226;2022-12-18T06:08:42;-6.60;99.90
13697;DHT22;6920;50.080;8.226;2022-12-18T06:11:09;-6.50;99.90
13697;DHT22;6920;50.080;8.226;2022-12-18T06:13:37;-6.40;99.90
13697;DHT22;6920;50.080;8.226;2022-12-18T06:16:06;-6.40;99.90
13697;DHT22;6920;50.080;8.226;2022-12-18T06:18:33;-6.30;99.90
13697;DHT22;6920;50.080;8.226;2022-12-18T06:23:28;-6.60;99.90
13697;DHT22;6920;50.080;8.226;2022-12-18T06:25:55;-5.20;99.90
13697;DHT22;6920;50.080;8.226;2022-12-18T06:28:22;-3.40;99.90
13697;DHT22;6920;50.080;8.226;2022-12-18T06:30:50;-5.10;99.90
13697;DHT22;6920;50.080;8.226;2022-12-18T06:33:20;-6.50;99.90
13697;DHT22;6920;50.080;8.226;2022-12-18T06:35:47;-5.40;99.90
13697;DHT22;6920;50.080;8.226;2022-12-18T06:38:14;-5.20;99.90
13697;DHT22;6920;50.080;8.226;2022-12-18T06:40:41;-6.00;99.90
13697;DHT22;6920;50.080;8.226;2022-12-18T06:43:08;-6.10;99.90
13697;DHT22;6920;50.080;8.226;2022-12-18T06:45:35;-6.70;99.90
13697;DHT22;6920;50.080;8.226;2022-12-18T06:48:02;-6.50;99.90
13697;DHT22;6920;50.080;8.226;2022-12-18T06:50:31;-6.50;99.90
13697;DHT22;6920;50.080;8.226;2022-12-18T06:52:58;-5.90;99.90
13697;DHT22;6920;50.080;8.226;2022-12-18T06:55:25;-6.10;99.90
13697;DHT22;6920;50.080;8.226;2022-12-18T06:57:52;-5.90;99.90
13697;DHT22;6920;50.080;8.226;2022-12-18T07:00:20;-5.10;99.90
13697;DHT22;6920;50.080;8.226;2022-12-18T07:02:47;-6.30;99.90
13697;DHT22;6920;50.080;8.226;2022-12-18T07:05:14;-6.10;99.90
13697;DHT22;6920;50.080;8.226;2022-12-18T07:07:42;-6.20;99.90
13697;DHT22;6920;50.080;8.226;2022-12-18T07:10:10;-6.40;99.90
13697;DHT22;6920;50.080;8.226;2022-12-18T07:12:37;-5.10;99.90
13697;DHT22;6920;50.080;8.226;2022-12-18T07:15:05;-5.50;99.90
13697;DHT22;6920;50.080;8.226;2022-12-18T07:17:32;-6.60;99.90
13697;DHT22;6920;50.080;8.226;2022-12-18T07:19:59;-6.70;99.90
13697;DHT22;6920;50.080;8.226;2022-12-18T07:22:27;-6.70;99.90
13697;DHT22;6920;50.080;8.226;2022-12-18T07:24:58;-6.60;99.90
13697;DHT22;6920;50.080;8.226;2022-12-18T07:27:28;-6.60;99.90
13697;DHT22;6920;50.080;8.226;2022-12-18T07:29:56;-6.70;99.90
13697;DHT22;6920;50.080;8.226;2022-12-18T07:32:25;-6.70;99.90
13697;DHT22;6920;50.080;8.226;2022-12-18T07:34:52;-6.70;99.90
13697;DHT22;6920;50.080;8.226;2022-12-18T07:37:20;-6.60;99.90
13697;DHT22;6920;50.080;8.226;2022-12-18T07:39:47;-6.60;99.90
13697;DHT22;6920;50.080;8.226;2022-12-18T07:42:15;-6.70;99.90
13697;DHT22;6920;50.080;8.226;2022-12-18T07:44:58;-6.80;99.90
13697;DHT22;6920;50.080;8.226;2022-12-18T07:47:26;-6.70;99.90
13697;DHT22;6920;50.080;8.226;2022-12-18T07:49:55;-6.50;99.90
13697;DHT22;6920;50.080;8.226;2022-12-18T07:52:23;-3.50;99.90
13697;DHT22;6920;50.080;8.226;2022-12-18T07:54:51;-6.30;99.90
13697;DHT22;6920;50.080;8.226;2022-12-18T07:57:22;-5.60;99.90
13697;DHT22;6920;50.080;8.226;2022-12-18T07:59:49;-6.20;99.90
13697;DHT22;6920;50.080;8.226;2022-12-18T08:02:16;-6.10;99.90
13697;DHT22;6920;50.080;8.226;2022-12-18T08:04:44;-6.10;99.90
13697;DHT22;6920;50.080;8.226;2022-12-18T08:07:12;-6.00;99.90
13697;DHT22;6920;50.080;8.226;2022-12-18T08:09:41;-5.80;99.90
13697;DHT22;6920;50.080;8.226;2022-12-18T08:12:10;-5.80;99.90
13697;DHT22;6920;50.080;8.226;2022-12-18T08:14:39;-5.70;99.90
13697;DHT22;6920;50.080;8.226;2022-12-18T08:17:06;-5.60;99.90
13697;DHT22;6920;50.080;8.226;2022-12-18T08:19:34;-5.60;99.90
13697;DHT22;6920;50.080;8.226;2022-12-18T08:22:02;-5.60;99.90
13697;DHT22;6920;50.080;8.226;2022-12-18T08:24:30;-5.50;99.90
13697;DHT22;6920;50.080;8.226;2022-12-18T08:26:58;-5.60;99.90
13697;DHT22;6920;50.080;8.226;2022-12-18T08:29:27;-5.60;99.90
13697;DHT22;6920;50.080;8.226;2022-12-18T08:31:57;-5.60;99.90
13697;DHT22;6920;50.080;8.226;2022-12-18T08:34:26;-5.60;99.90
13697;DHT22;6920;50.080;8.226;2022-12-18T08:36:54;-5.40;99.90
13697;DHT22;6920;50.080;8.226;2022-12-18T08:39:21;-5.50;99.90
13697;DHT22;6920;50.080;8.226;2022-12-18T08:41:48;-5.50;99.90
13697;DHT22;6920;50.080;8.226;2022-12-18T08:44:31;-5.40;99.90
13697;DHT22;6920;50.080;8.226;2022-12-18T08:47:07;-5.30;99.90
13697;DHT22;6920;50.080;8.226;2022-12-18T08:49:35;-5.20;99.90
13697;DHT22;6920;50.080;8.226;2022-12-18T08:52:03;-5.20;99.90
13697;DHT22;6920;50.080;8.226;2022-12-18T08:54:30;-5.20;99.90
13697;DHT22;6920;50.080;8.226;2022-12-18T08:56:58;-5.10;99.90
13697;DHT22;6920;50.080;8.226;2022-12-18T08:59:30;-5.10;99.90
13697;DHT22;6920;50.080;8.226;2022-12-18T09:01:58;-5.10;99.90
13697;DHT22;6920;50.080;8.226;2022-12-18T09:04:28;-5.10;99.90
13697;DHT22;6920;50.080;8.226;2022-12-18T09:06:55;-5.00;99.90
13697;DHT22;6920;50.080;8.226;2022-12-18T09:09:22;-5.10;99.90
13697;DHT22;6920;50.080;8.226;2022-12-18T09:11:50;-5.00;99.90
13697;DHT22;6920;50.080;8.226;2022-12-18T09:14:18;-5.10;99.90
13697;DHT22;6920;50.080;8.226;2022-12-18T09:16:45;-5.10;99.90
13697;DHT22;6920;50.080;8.226;2022-12-18T09:19:13;-5.10;99.90
13697;DHT22;6920;50.080;8.226;2022-12-18T09:21:43;-5.10;99.90
13697;DHT22;6920;50.080;8.226;2022-12-18T09:24:12;-5.00;99.90
13697;DHT22;6920;50.080;8.226;2022-12-18T09:26:42;-4.90;99.90
13697;DHT22;6920;50.080;8.226;2022-12-18T09:29:11;-4.60;99.90
13697;DHT22;6920;50.080;8.226;2022-12-18T09:31:38;-4.40;99.90
13697;DHT22;6920;50.080;8.226;2022-12-18T09:34:06;-4.40;99.90
13697;DHT22;6920;50.080;8.226;2022-12-18T09:36:34;-4.30;99.90
13697;DHT22;6920;50.080;8.226;2022-12-18T09:39:03;-4.20;99.90
13697;DHT22;6920;50.080;8.226;2022-12-18T09:41:50;-4.10;99.90
13697;DHT22;6920;50.080;8.226;2022-12-18T09:44:24;-4.00;99.90
13697;DHT22;6920;50.080;8.226;2022-12-18T09:46:59;-4.00;99.90
13697;DHT22;6920;50.080;8.226;2022-12-18T09:49:46;-3.90;99.90
13697;DHT22;6920;50.080;8.226;2022-12-18T09:52:21;-3.50;99.90
13697;DHT22;6920;50.080;8.226;2022-12-18T09:54:59;-3.70;99.90
13697;DHT22;6920;50.080;8.226;2022-12-18T09:57:31;-3.60;99.90
13697;DHT22;6920;50.080;8.226;2022-12-18T10:00:06;-3.60;99.90
13697;DHT22;6920;50.080;8.226;2022-12-18T10:02:35;-3.60;99.90
13697;DHT22;6920;50.080;8.226;2022-12-18T10:05:06;-3.50;99.90
13697;DHT22;6920;50.080;8.226;2022-12-18T10:07:41;-3.50;99.90
13697;DHT22;6920;50.080;8.226;2022-12-18T10:10:23;-3.40;99.90
13697;DHT22;6920;50.080;8.226;2022-12-18T10:13:00;-3.30;99.90
13697;DHT22;6920;50.080;8.226;2022-12-18T10:15:34;-3.20;99.90
13697;DHT22;6920;50.080;8.226;2022-12-18T10:18:17;-3.10;99.90
13697;DHT22;6920;50.080;8.226;2022-12-18T10:20:53;-3.10;99.90
13697;DHT22;6920;50.080;8.226;2022-12-18T10:23:28;-3.10;99.90
13697;DHT22;6920;50.080;8.226;2022-12-18T10:26:02;-3.10;99.90
13697;DHT22;6920;50.080;8.226;2022-12-18T10:28:34;-3.10;99.90
13697;DHT22;6920;50.080;8.226;2022-12-18T10:31:02;-2.90;99.90
13697;DHT22;6920;50.080;8.226;2022-12-18T10:33:34;-2.80;99.90
13697;DHT22;6920;50.080;8.226;2022-12-18T10:36:02;-3.00;99.90
13697;DHT22;6920;50.080;8.226;2022-12-18T10:38:32;-3.00;99.90
13697;DHT22;6920;50.080;8.226;2022-12-18T10:41:04;-2.30;99.90
13697;DHT22;6920;50.080;8.226;2022-12-18T10:43:32;-2.80;99.90
13697;DHT22;6920;50.080;8.226;2022-12-18T10:46:04;-2.90;99.90
13697;DHT22;6920;50.080;8.226;2022-12-18T10:48:35;-3.10;99.90
13697;DHT22;6920;50.080;8.226;2022-12-18T10:51:05;-3.00;99.90
13697;DHT22;6920;50.080;8.226;2022-12-18T10:53:35;-3.20;99.90
13697;DHT22;6920;50.080;8.226;2022-12-18T10:56:06;-3.00;99.90
13697;DHT22;6920;50.080;8.226;2022-12-18T10:58:36;-2.90;99.90
13697;DHT22;6920;50.080;8.226;2022-12-18T11:01:15;-3.00;99.90
13697;DHT22;6920;50.080;8.226;2022-12-18T11:03:44;-3.10;99.90
13697;DHT22;6920;50.080;8.226;2022-12-18T11:06:13;-2.90;99.90
13697;DHT22;6920;50.080;8.226;2022-12-18T11:08:42;-2.90;99.90
13697;DHT22;6920;50.080;8.226;2022-12-18T11:11:20;-2.70;99.90
13697;DHT22;6920;50.080;8.226;2022-12-18T11:13:59;-2.60;99.90
13697;DHT22;6920;50.080;8.226;2022-12-18T11:16:29;-2.70;99.90
13697;DHT22;6920;50.080;8.226;2022-12-18T11:19:17;-2.40;99.90
13697;DHT22;6920;50.080;8.226;2022-12-18T11:21:46;-2.60;99.90
13697;DHT22;6920;50.080;8.226;2022-12-18T11:24:29;-2.60;99.90
13697;DHT22;6920;50.080;8.226;2022-12-18T11:27:03;-2.60;99.90
13697;DHT22;6920;50.080;8.226;2022-12-18T11:29:35;-2.40;99.90
13697;DHT22;6920;50.080;8.226;2022-12-18T11:32:26;-1.90;99.90
13697;DHT22;6920;50.080;8.226;2022-12-18T11:35:00;-2.30;99.90
13697;DHT22;6920;50.080;8.226;2022-12-18T11:37:31;-2.10;99.90
13697;DHT22;6920;50.080;8.226;2022-12-18T11:40:03;-2.30;99.90
13697;DHT22;6920;50.080;8.226;2022-12-18T11:42:39;-2.50;99.90
13697;DHT22;6920;50.080;8.226;2022-12-18T11:45:24;-1.40;99.90
13697;DHT22;6920;50.080;8.226;2022-12-18T11:47:57;-2.40;99.90
13697;DHT22;6920;50.080;8.226;2022-12-18T11:50:29;-2.40;99.90
13697;DHT22;6920;50.080;8.226;2022-12-18T11:52:58;-2.50;99.90
13697;DHT22;6920;50.080;8.226;2022-12-18T11:55:37;-2.40;99.90
13697;DHT22;6920;50.080;8.226;2022-12-18T11:58:18;-0.60;99.90
13697;DHT22;6920;50.080;8.226;2022-12-18T12:00:53;-2.90;99.90
13697;DHT22;6920;50.080;8.226;2022-12-18T12:03:36;-2.40;99.90
13697;DHT22;6920;50.080;8.226;2022-12-18T12:06:12;-1.50;99.90
13697;DHT22;6920;50.080;8.226;2022-12-18T12:08:50;-2.60;99.90
13697;DHT22;6920;50.080;8.226;2022-12-18T12:11:25;-2.90;99.90
13697;DHT22;6920;50.080;8.226;2022-12-18T12:14:05;-1.50;99.90
13697;DHT22;6920;50.080;8.226;2022-12-18T12:16:41;-2.90;99.90
13697;DHT22;6920;50.080;8.226;2022-12-18T12:19:27;-2.90;99.90
13697;DHT22;6920;50.080;8.226;2022-12-18T12:22:06;-2.80;99.90
13697;DHT22;6920;50.080;8.226;2022-12-18T12:24:45;-2.80;99.90
13697;DHT22;6920;50.080;8.226;2022-12-18T12:27:20;-2.80;99.90
13697;DHT22;6920;50.080;8.226;2022-12-18T12:30:00;-2.70;99.90
13697;DHT22;6920;50.080;8.226;2022-12-18T12:32:44;-3.00;99.90
13697;DHT22;6920;50.080;8.226;2022-12-18T12:35:25;-3.00;99.90
13697;DHT22;6920;50.080;8.226;2022-12-18T12:38:04;-2.90;99.90
13697;DHT22;6920;50.080;8.226;2022-12-18T12:40:35;-2.60;99.90
13697;DHT22;6920;50.080;8.226;2022-12-18T12:43:10;-2.90;99.90
13697;DHT22;6920;50.080;8.226;2022-12-18T12:45:46;-2.90;99.90
13697;DHT22;6920;50.080;8.226;2022-12-18T12:48:28;-2.90;99.90
13697;DHT22;6920;50.080;8.226;2022-12-18T12:51:01;-2.90;99.90
13697;DHT22;6920;50.080;8.226;2022-12-18T12:53:34;-2.80;99.90
13697;DHT22;6920;50.080;8.226;2022-12-18T12:56:04;-2.80;99.90
13697;DHT22;6920;50.080;8.226;2022-12-18T12:58:36;-2.90;99.90
13697;DHT22;6920;50.080;8.226;2022-12-18T13:01:17;-2.60;99.90
13697;DHT22;6920;50.080;8.226;2022-12-18T13:03:55;-2.70;99.90
13697;DHT22;6920;50.080;8.226;2022-12-18T13:06:37;-3.00;99.90
13697;DHT22;6920;50.080;8.226;2022-12-18T13:09:07;-3.00;99.90
13697;DHT22;6920;50.080;8.226;2022-12-18T13:11:38;-0.10;99.90
13697;DHT22;6920;50.080;8.226;2022-12-18T13:14:25;-0.30;99.90
13697;DHT22;6920;50.080;8.226;2022-12-18T13:17:15;-2.80;99.90
13697;DHT22;6920;50.080;8.226;2022-12-18T13:19:43;-2.80;99.90
13697;DHT22;6920;50.080;8.226;2022-12-18T13:22:21;-3.00;99.90
13697;DHT22;6920;50.080;8.226;2022-12-18T13:24:49;-3.10;99.90
13697;DHT22;6920;50.080;8.226;2022-12-18T13:30:53;-3.00;99.90
13697;DHT22;6920;50.080;8.226;2022-12-18T13:33:49;-3.10;99.90
13697;DHT22;6920;50.080;8.226;2022-12-18T13:36:31;-3.20;99.90
13697;DHT22;6920;50.080;8.226;2022-12-18T13:39:23;-3.10;99.90
13697;DHT22;6920;50.080;8.226;2022-12-18T13:41:52;-3.00;99.90
13697;DHT22;6920;50.080;8.226;2022-12-18T13:44:30;-2.80;99.90
13697;DHT22;6920;50.080;8.226;2022-12-18T13:46:58;-2.90;99.90
13697;DHT22;6920;50.080;8.226;2022-12-18T13:49:36;-3.00;99.90
13697;DHT22;6920;50.080;8.226;2022-12-18T13:52:16;-3.10;99.90
13697;DHT22;6920;50.080;8.226;2022-12-18T13:54:49;-3.30;99.90
13697;DHT22;6920;50.080;8.226;2022-12-18T13:57:26;-3.20;99.90
13697;DHT22;6920;50.080;8.226;2022-12-18T13:59:54;-3.10;99.90
13697;DHT22;6920;50.080;8.226;2022-12-18T14:02:23;-3.00;99.90
13697;DHT22;6920;50.080;8.226;2022-12-18T14:04:53;-2.30;99.90
13697;DHT22;6920;50.080;8.226;2022-12-18T14:07:23;-3.20;99.90
13697;DHT22;6920;50.080;8.226;2022-12-18T14:09:53;-3.10;99.90
13697;DHT22;6920;50.080;8.226;2022-12-18T14:12:25;-2.90;99.90
13697;DHT22;6920;50.080;8.226;2022-12-18T14:15:27;-2.60;99.90
13697;DHT22;6920;50.080;8.226;2022-12-18T14:24:41;-3.10;99.90
13697;DHT22;6920;50.080;8.226;2022-12-18T14:27:19;-3.10;99.90
13697;DHT22;6920;50.080;8.226;2022-12-18T14:29:47;-2.00;99.90
13697;DHT22;6920;50.080;8.226;2022-12-18T14:32:16;-3.00;99.90
13697;DHT22;6920;50.080;8.226;2022-12-18T14:34:44;-2.90;99.90
13697;DHT22;6920;50.080;8.226;2022-12-18T14:37:14;-2.90;99.90
13697;DHT22;6920;50.080;8.226;2022-12-18T14:39:52;-2.90;99.90
13697;DHT22;6920;50.080;8.226;2022-12-18T14:42:19;-3.00;99.90
13697;DHT22;6920;50.080;8.226;2022-12-18T14:44:47;-2.80;99.90
13697;DHT22;6920;50.080;8.226;2022-12-18T14:47:15;-2.80;99.90
13697;DHT22;6920;50.080;8.226;2022-12-18T14:49:43;-0.80;99.90
13697;DHT22;6920;50.080;8.226;2022-12-18T14:52:25;-2.90;99.90
13697;DHT22;6920;50.080;8.226;2022-12-18T14:54:55;-2.90;99.90
13697;DHT22;6920;50.080;8.226;2022-12-18T14:57:24;-2.90;99.90
13697;DHT22;6920;50.080;8.226;2022-12-18T14:59:52;-3.00;99.90
13697;DHT22;6920;50.080;8.226;2022-12-18T15:02:22;-3.00;99.90
13697;DHT22;6920;50.080;8.226;2022-12-18T15:05:00;-3.10;99.90
13697;DHT22;6920;50.080;8.226;2022-12-18T15:07:40;-3.10;99.90
13697;DHT22;6920;50.080;8.226;2022-12-18T15:10:13;-2.90;99.90
13697;DHT22;6920;50.080;8.226;2022-12-18T15:12:42;-2.80;99.90
13697;DHT22;6920;50.080;8.226;2022-12-18T15:15:47;-1.50;99.90
13697;DHT22;6920;50.080;8.226;2022-12-18T15:18:15;-2.80;99.90
13697;DHT22;6920;50.080;8.226;2022-12-18T15:20:45;-2.90;99.90
13697;DHT22;6920;50.080;8.226;2022-12-18T15:23:16;-2.80;99.90
13697;DHT22;6920;50.080;8.226;2022-12-18T15:25:46;-2.80;99.90
13697;DHT22;6920;50.080;8.226;2022-12-18T15:28:20;-2.90;99.90
13697;DHT22;6920;50.080;8.226;2022-12-18T15:31:06;-2.90;99.90
13697;DHT22;6920;50.080;8.226;2022-12-18T15:33:59;-2.90;99.90
13697;DHT22;6920;50.080;8.226;2022-12-18T15:36:26;-2.80;99.90
13697;DHT22;6920;50.080;8.226;2022-12-18T15:38:55;-2.80;99.90
13697;DHT22;6920;50.080;8.226;2022-12-18T15:41:25;-2.80;99.90
13697;DHT22;6920;50.080;8.226;2022-12-18T15:43:52;-2.90;99.90
13697;DHT22;6920;50.080;8.226;2022-12-18T15:46:20;-2.80;99.90
13697;DHT22;6920;50.080;8.226;2022-12-18T15:48:49;-2.80;99.90
13697;DHT22;6920;50.080;8.226;2022-12-18T15:51:19;-1.50;99.90
13697;DHT22;6920;50.080;8.226;2022-12-18T15:53:47;-2.70;99.90
13697;DHT22;6920;50.080;8.226;2022-12-18T15:56:16;-2.50;99.90
13697;DHT22;6920;50.080;8.226;2022-12-18T15:59:02;-2.70;99.90
13697;DHT22;6920;50.080;8.226;2022-12-18T16:01:30;-2.70;99.90
13697;DHT22;6920;50.080;8.226;2022-12-18T16:03:57;-2.70;99.90
13697;DHT22;6920;50.080;8.226;2022-12-18T16:06:24;-2.70;99.90
13697;DHT22;6920;50.080;8.226;2022-12-18T16:08:52;-2.80;99.90
13697;DHT22;6920;50.080;8.226;2022-12-18T16:11:22;-2.30;99.90
13697;DHT22;6920;50.080;8.226;2022-12-18T16:14:06;-2.70;99.90
13697;DHT22;6920;50.080;8.226;2022-12-18T16:16:33;-2.60;99.90
13697;DHT22;6920;50.080;8.226;2022-12-18T16:19:00;-2.60;99.90
13697;DHT22;6920;50.080;8.226;2022-12-18T16:21:27;-2.60;99.90
13697;DHT22;6920;50.080;8.226;2022-12-18T16:23:54;-2.50;99.90